Time;durP1;ratioP1;P1;durP2;ratioP2;P2;SDS_P1;SDS_P2;PMS_P1;PMS_P2;Temp;Humidity;BMP_temperature;BMP_pressure;BME280_temperature;BME280_humidity;BME280_pressure;Samples;Min_cycle;Max_cycle;Signal;HPM_P1;HPM_P2
2024/03/21 00:02:02;;;;;;;9.43;6.30;;;;;;;10.13;75.51;99052.09;4980373;28;20030;-83
2024/03/21 00:04:28;;;;;;;8.60;6.15;;;;;;;10.15;76.00;99056.13;5012044;28;20524;-81
2024/03/21 00:06:53;;;;;;;7.22;6.07;;;;;;;10.15;75.15;99056.13;4977509;28;20038;-83
2024/03/21 00:09:20;;;;;;;8.60;5.93;;;;;;;9.93;75.46;99043.69;4998540;28;20459;-83
2024/03/21 00:11:46;;;;;;;8.88;6.47;;;;;;;10.09;75.58;99059.72;4998357;28;20061;-82
2024/03/21 00:14:11;;;;;;;7.90;5.97;;;;;;;9.94;75.73;99032.00;4997556;28;20108;-82
2024/03/21 00:16:36;;;;;;;11.88;6.60;;;;;;;10.03;75.69;99043.84;4983689;28;20432;-83
2024/03/21 00:19:03;;;;;;;7.35;5.57;;;;;;;10.05;75.27;99034.56;4980440;28;20033;-83
2024/03/21 00:21:29;;;;;;;9.27;6.65;;;;;;;9.94;76.37;99037.31;4981035;28;20092;-82
2024/03/21 00:23:54;;;;;;;8.52;5.65;;;;;;;9.79;75.67;99024.50;4998400;28;20022;-82
2024/03/21 00:26:20;;;;;;;8.32;6.13;;;;;;;9.94;76.02;99038.09;4990525;28;20029;-83
2024/03/21 00:28:46;;;;;;;9.85;6.57;;;;;;;10.05;75.42;99039.09;4990562;28;20033;-83
2024/03/21 00:31:12;;;;;;;8.38;6.47;;;;;;;9.93;75.76;99015.19;4982201;28;20037;-82
2024/03/21 00:33:37;;;;;;;13.27;6.30;;;;;;;9.91;75.32;99003.13;4996910;28;20049;-83
2024/03/21 00:36:04;;;;;;;11.48;6.35;;;;;;;9.91;76.21;99027.94;4996512;28;20037;-83
2024/03/21 00:38:30;;;;;;;6.82;5.43;;;;;;;9.99;75.93;99024.06;4998542;28;20029;-84
2024/03/21 00:40:55;;;;;;;9.18;5.90;;;;;;;9.65;76.55;99015.19;5008620;28;20030;-83
2024/03/21 00:43:22;;;;;;;11.10;6.22;;;;;;;9.97;75.37;99016.31;4982200;28;20097;-84
2024/03/21 00:45:48;;;;;;;8.38;5.65;;;;;;;9.73;77.07;99017.47;5014942;28;20034;-84
2024/03/21 00:48:13;;;;;;;9.80;6.15;;;;;;;9.83;75.63;99017.66;4981502;28;20033;-84
2024/03/21 00:50:38;;;;;;;12.70;6.35;;;;;;;9.86;75.65;99011.84;4999314;28;20371;-84
2024/03/21 00:53:05;;;;;;;9.75;6.20;;;;;;;9.76;76.36;99014.34;4978884;28;20073;-82
2024/03/21 00:55:31;;;;;;;7.95;6.72;;;;;;;9.72;76.15;99019.31;4992716;28;20030;-84
2024/03/21 00:57:56;;;;;;;9.95;6.22;;;;;;;9.70;75.87;99012.59;4990902;28;20038;-83
2024/03/21 01:00:22;;;;;;;12.13;6.55;;;;;;;9.68;75.96;99012.03;4995461;28;20033;-83
2024/03/21 01:02:47;;;;;;;6.88;5.65;;;;;;;9.61;75.57;99000.75;4972752;28;20061;-84
2024/03/21 01:05:14;;;;;;;9.90;6.25;;;;;;;9.91;75.52;99017.28;5014781;28;20041;-84
2024/03/21 01:07:40;;;;;;;11.68;8.35;;;;;;;8.97;77.15;98997.34;4997670;28;20040;-82
2024/03/21 01:10:05;;;;;;;11.35;7.35;;;;;;;9.28;78.46;99005.94;5014059;28;20136;-83
2024/03/21 01:12:31;;;;;;;8.90;6.15;;;;;;;9.46;76.97;99001.22;4981521;28;20116;-84
2024/03/21 01:14:56;;;;;;;11.00;7.13;;;;;;;8.74;78.45;99001.84;5014965;28;20037;-83
2024/03/21 01:17:23;;;;;;;11.23;6.38;;;;;;;9.48;77.64;99003.69;4973017;28;20164;-83
2024/03/21 01:19:48;;;;;;;13.45;9.50;;;;;;;8.65;78.19;98997.94;4981060;28;20036;-83
2024/03/21 01:22:13;;;;;;;15.38;8.77;;;;;;;9.01;77.07;98990.50;4995581;28;20029;-82
2024/03/21 01:24:39;;;;;;;10.73;6.63;;;;;;;8.87;78.48;99005.09;4975358;28;20026;-84
2024/03/21 01:27:04;;;;;;;14.63;8.40;;;;;;;8.54;78.26;98977.47;4994571;28;20096;-83
2024/03/21 01:29:30;;;;;;;10.25;6.95;;;;;;;8.95;78.63;98982.63;4978051;28;20033;-83
2024/03/21 01:31:55;;;;;;;10.93;7.18;;;;;;;9.10;78.51;98996.25;4981045;28;20025;-83
2024/03/21 01:34:20;;;;;;;12.70;7.13;;;;;;;8.92;78.61;98999.88;5013507;28;20053;-83
2024/03/21 01:36:47;;;;;;;8.80;6.95;;;;;;;8.97;78.53;99005.31;4980617;28;20029;-84
2024/03/21 01:39:14;;;;;;;13.77;8.73;;;;;;;8.26;79.06;98994.91;4996980;28;20049;-84
2024/03/21 01:41:40;;;;;;;14.73;8.68;;;;;;;7.95;80.99;98995.16;4996991;28;20481;-84
2024/03/21 01:44:12;;;;;;;14.43;9.48;;;;;;;7.84;81.31;98993.28;5013022;28;20065;-83
2024/03/21 01:46:38;;;;;;;14.70;9.65;;;;;;;7.47;82.59;98986.47;4993114;28;20033;-84
2024/03/21 01:49:03;;;;;;;16.85;8.13;;;;;;;7.39;83.74;99000.88;4995929;28;20034;-83
2024/03/21 01:51:29;;;;;;;12.65;7.05;;;;;;;7.95;82.63;98975.78;4981552;28;20049;-82
2024/03/21 01:53:55;;;;;;;8.98;6.93;;;;;;;8.26;81.55;98996.75;5011507;28;20121;-84
2024/03/21 01:56:21;;;;;;;12.40;8.32;;;;;;;8.32;80.66;98990.53;5008857;28;20113;-83
2024/03/21 01:58:47;;;;;;;13.20;8.35;;;;;;;7.75;81.87;98988.53;4995785;28;20501;-84
2024/03/21 02:01:26;;;;;;;8.85;7.00;;;;;;;8.35;80.65;98979.41;5006454;28;20117;-83
2024/03/21 02:03:56;;;;;;;13.05;9.35;;;;;;;7.97;80.42;98968.38;5012625;28;20028;-83
2024/03/21 02:06:25;;;;;;;18.75;9.98;;;;;;;7.79;80.45;98979.06;5009225;28;20041;-83
2024/03/21 02:08:53;;;;;;;11.32;7.57;;;;;;;7.97;81.71;98989.66;5013013;28;20112;-83
2024/03/21 02:11:19;;;;;;;14.85;8.27;;;;;;;7.87;82.09;98979.56;5003834;28;21421;-83
2024/03/21 02:13:46;;;;;;;12.77;9.77;;;;;;;7.38;82.08;98963.94;4993632;28;20038;-84
2024/03/21 02:16:12;;;;;;;10.93;7.55;;;;;;;8.25;80.27;98968.53;5015216;28;20090;-83
2024/03/21 02:18:37;;;;;;;10.70;7.03;;;;;;;8.79;78.69;98972.69;5012383;28;20030;-84
2024/03/21 02:21:06;;;;;;;13.63;7.55;;;;;;;8.72;78.52;98932.91;4998823;28;20022;-84
2024/03/21 02:23:32;;;;;;;8.93;6.72;;;;;;;8.54;78.95;98954.31;4969189;28;20076;-84
2024/03/21 02:25:58;;;;;;;13.43;8.90;;;;;;;8.45;78.19;98957.59;5016309;28;20030;-82
2024/03/21 02:28:24;;;;;;;15.18;7.75;;;;;;;8.35;79.26;98952.00;4979378;28;20034;-84
2024/03/21 02:30:50;;;;;;;11.77;8.20;;;;;;;8.54;78.65;98961.50;4981222;28;20022;-82
2024/03/21 02:33:16;;;;;;;17.75;8.65;;;;;;;8.52;78.65;98969.69;4997475;28;20088;-82
2024/03/21 02:35:41;;;;;;;10.93;7.65;;;;;;;8.48;79.09;98970.41;4994777;28;20390;-83
2024/03/21 02:38:07;;;;;;;7.05;6.03;;;;;;;9.02;77.29;98951.38;4981433;28;20121;-84
2024/03/21 02:40:32;;;;;;;8.80;6.45;;;;;;;9.09;76.81;98937.94;5018159;28;20030;-83
2024/03/21 02:42:57;;;;;;;9.27;6.20;;;;;;;9.18;76.91;98958.59;4998291;28;20061;-83
2024/03/21 02:45:23;;;;;;;15.30;8.60;;;;;;;8.83;78.12;98973.84;4998598;28;20049;-83
2024/03/21 02:47:48;;;;;;;9.57;7.65;;;;;;;8.67;78.86;98946.09;4990211;28;20042;-84
2024/03/21 02:50:13;;;;;;;8.77;6.65;;;;;;;8.74;79.11;98968.06;4965207;28;20097;-84
2024/03/21 02:52:39;;;;;;;7.57;6.03;;;;;;;9.02;78.12;98968.13;4990049;28;20097;-83
2024/03/21 02:55:04;;;;;;;9.38;6.00;;;;;;;9.08;77.74;98963.75;4997692;28;20120;-83
2024/03/21 02:57:29;;;;;;;10.82;6.80;;;;;;;9.00;77.69;98943.59;4967844;28;20034;-84
2024/03/21 02:59:55;;;;;;;11.25;7.43;;;;;;;9.18;77.41;98971.09;4993942;28;20029;-83
2024/03/21 03:02:20;;;;;;;15.77;7.65;;;;;;;9.25;77.08;98974.44;5014335;28;20046;-84
2024/03/21 03:04:45;;;;;;;9.50;6.32;;;;;;;9.29;76.62;98979.06;4998726;28;20030;-84
2024/03/21 03:07:11;;;;;;;9.88;6.88;;;;;;;8.61;79.56;98968.31;4996316;28;20036;-83
2024/03/21 03:09:37;;;;;;;9.20;6.55;;;;;;;8.90;79.09;98969.22;4983053;28;20656;-84
2024/03/21 03:12:02;;;;;;;7.93;6.68;;;;;;;9.14;77.92;98969.97;5017057;28;20436;-84
2024/03/21 03:14:27;;;;;;;10.10;6.93;;;;;;;9.21;77.63;98967.97;4980818;28;20041;-84
2024/03/21 03:16:53;;;;;;;9.52;6.32;;;;;;;9.34;76.76;98957.03;4981984;28;20087;-84
2024/03/21 03:19:18;;;;;;;11.32;7.03;;;;;;;9.35;76.63;98964.00;4993150;28;20097;-84
2024/03/21 03:21:43;;;;;;;10.18;6.32;;;;;;;9.05;77.96;98966.84;5012555;28;20034;-84
2024/03/21 03:24:09;;;;;;;8.68;6.15;;;;;;;8.78;78.71;98941.81;4998220;28;20034;-82
2024/03/21 03:26:34;;;;;;;14.95;9.35;;;;;;;8.08;82.82;98964.94;4973967;28;20037;-84
2024/03/21 03:28:59;;;;;;;8.55;6.50;;;;;;;8.44;81.59;98950.63;4982462;28;20440;-83
2024/03/21 03:31:26;;;;;;;16.55;9.70;;;;;;;8.19;82.29;98950.84;4997760;28;20410;-84
2024/03/21 03:36:35;;;;;;;13.55;7.70;;;;;;;8.17;82.17;98951.06;4993927;28;20104;-83
2024/03/21 03:39:00;;;;;;;16.98;10.57;;;;;;;7.69;83.77;98942.41;5013555;28;20022;-81
2024/03/21 03:41:28;;;;;;;9.00;7.05;;;;;;;7.89;84.48;98955.41;4965977;28;20057;-84
2024/03/21 03:43:54;;;;;;;12.18;7.03;;;;;;;8.44;81.91;98961.28;4994346;28;20036;-84
2024/03/21 03:46:19;;;;;;;10.55;6.55;;;;;;;8.93;79.35;98947.47;4995161;28;20562;-83
2024/03/21 03:48:45;;;;;;;11.38;6.82;;;;;;;9.06;78.19;98928.56;4998356;28;20081;-84
2024/03/21 03:51:10;;;;;;;15.13;9.90;;;;;;;8.54;79.11;98956.97;4996550;28;20037;-84
2024/03/21 03:53:35;;;;;;;17.60;10.85;;;;;;;7.90;82.32;98954.38;5006903;28;20030;-83
2024/03/21 03:56:01;;;;;;;13.27;9.10;;;;;;;7.39;85.38;98962.88;4977660;28;20033;-82
2024/03/21 03:58:26;;;;;;;11.90;9.13;;;;;;;7.11;86.63;98938.75;5008866;28;20658;-83
2024/03/21 04:00:59;;;;;;;15.73;9.50;;;;;;;7.55;85.44;98947.16;5005652;28;20049;-83
2024/03/21 04:03:28;;;;;;;12.07;8.73;;;;;;;7.38;86.22;98961.28;5010169;28;20026;-84
2024/03/21 04:06:02;;;;;;;9.95;7.03;;;;;;;7.92;84.36;98947.00;4974371;28;20038;-83
2024/03/21 04:08:28;;;;;;;9.93;7.60;;;;;;;8.40;82.48;98938.84;5003393;28;20109;-83
2024/03/21 04:10:58;;;;;;;9.05;6.97;;;;;;;8.21;82.02;98919.53;4998321;28;20076;-83
2024/03/21 04:13:24;;;;;;;19.45;10.13;;;;;;;7.71;84.10;98929.72;4987706;28;20034;-84
2024/03/21 04:15:56;;;;;;;12.85;8.52;;;;;;;7.79;84.25;98940.03;4993267;28;20025;-83
2024/03/21 04:18:23;;;;;;;13.20;8.63;;;;;;;8.07;81.88;98912.78;5011563;28;20041;-82
2024/03/21 04:20:52;;;;;;;16.42;9.95;;;;;;;8.46;79.95;98937.91;5016417;28;20034;-83
2024/03/21 04:23:18;;;;;;;11.18;8.30;;;;;;;7.87;82.69;98933.56;4991974;28;20060;-84
2024/03/21 04:25:43;;;;;;;11.75;8.65;;;;;;;7.93;83.19;98948.63;4978220;28;20129;-82
2024/03/21 04:28:09;;;;;;;13.43;9.43;;;;;;;7.90;83.26;98954.38;4994573;28;20030;-84
2024/03/21 04:30:35;;;;;;;13.90;9.68;;;;;;;7.17;85.34;98921.94;5011772;28;20030;-83
2024/03/21 04:33:01;;;;;;;14.65;10.65;;;;;;;7.16;86.84;98937.06;4975737;28;20040;-83
2024/03/21 04:35:26;;;;;;;13.52;9.60;;;;;;;7.43;86.01;98948.13;4975072;28;20113;-83
2024/03/21 04:37:51;;;;;;;9.52;6.97;;;;;;;8.64;80.71;98938.59;5011100;28;20041;-83
2024/03/21 04:40:17;;;;;;;9.27;6.88;;;;;;;8.88;78.82;98942.03;4977769;28;20041;-85
2024/03/21 04:42:42;;;;;;;8.57;6.63;;;;;;;9.09;78.25;98956.56;4991900;28;20390;-84
2024/03/21 04:45:08;;;;;;;7.82;6.65;;;;;;;9.15;77.75;98961.75;4979726;28;20488;-84
2024/03/21 04:47:34;;;;;;;9.93;7.50;;;;;;;9.10;77.40;98947.53;4991753;28;20100;-84
2024/03/21 04:49:59;;;;;;;7.63;6.72;;;;;;;8.99;78.06;98938.53;4979945;28;20033;-84
2024/03/21 04:52:27;;;;;;;9.13;6.90;;;;;;;8.86;77.88;98950.25;4997904;28;20709;-84
2024/03/21 04:54:52;;;;;;;14.10;8.73;;;;;;;8.53;80.17;98960.69;4995849;28;20033;-84
2024/03/21 04:57:18;;;;;;;10.68;7.82;;;;;;;9.02;78.42;98946.84;5010672;28;20725;-84
2024/03/21 04:59:43;;;;;;;10.10;7.32;;;;;;;8.55;81.40;98947.97;4961477;28;20042;-85
2024/03/21 05:02:09;;;;;;;11.18;7.75;;;;;;;8.63;79.91;98950.25;4991474;28;20022;-84
2024/03/21 05:04:34;;;;;;;15.23;7.65;;;;;;;9.05;78.59;98949.03;4992906;28;20037;-83
2024/03/21 05:06:59;;;;;;;11.45;8.07;;;;;;;9.10;77.83;98935.03;5008048;28;20030;-84
2024/03/21 05:09:25;;;;;;;10.90;7.28;;;;;;;9.13;77.62;98944.41;4977154;28;20432;-84
2024/03/21 05:11:50;;;;;;;12.25;7.15;;;;;;;9.13;77.94;98949.72;4979657;28;20042;-84
2024/03/21 05:14:15;;;;;;;11.98;9.43;;;;;;;8.45;80.18;98947.75;4978680;28;20034;-84
2024/03/21 05:16:41;;;;;;;12.55;9.75;;;;;;;8.00;83.77;98965.25;5008377;28;20496;-83
2024/03/21 05:19:06;;;;;;;9.40;7.10;;;;;;;9.00;79.65;98964.91;4976801;28;20485;-84
2024/03/21 05:21:31;;;;;;;10.15;7.68;;;;;;;9.02;78.06;98938.84;5006742;28;20068;-84
2024/03/21 05:23:57;;;;;;;10.55;6.85;;;;;;;9.16;77.67;98965.19;4984310;28;20037;-84
2024/03/21 05:26:23;;;;;;;14.32;8.65;;;;;;;8.68;79.51;98950.38;5009960;28;20734;-83
2024/03/21 05:28:49;;;;;;;16.98;10.07;;;;;;;8.32;81.27;98965.78;4980181;28;20037;-83
2024/03/21 05:31:22;;;;;;;21.67;10.80;;;;;;;7.43;87.19;98982.63;4975390;28;20558;-83
2024/03/21 05:33:48;;;;;;;18.48;11.38;;;;;;;7.10;88.98;98976.97;5009696;28;20386;-83
2024/03/21 05:36:14;;;;;;;13.38;9.52;;;;;;;7.32;89.36;98994.84;4976882;28;20030;-83
2024/03/21 05:38:40;;;;;;;18.58;12.20;;;;;;;7.93;85.21;98980.50;4994116;28;20038;-83
2024/03/21 05:41:06;;;;;;;11.32;8.35;;;;;;;8.65;81.31;98982.78;4973191;28;20036;-82
2024/03/21 05:43:32;;;;;;;9.80;8.10;;;;;;;8.84;80.88;98989.59;4986308;28;20022;-83
2024/03/21 05:45:57;;;;;;;17.77;11.90;;;;;;;8.74;79.82;98992.03;4987116;28;20084;-83
2024/03/21 05:48:22;;;;;;;13.35;8.88;;;;;;;8.33;82.69;98984.16;4982447;28;20037;-84
2024/03/21 05:50:48;;;;;;;11.60;7.90;;;;;;;8.76;80.16;98983.78;4970881;28;20041;-83
2024/03/21 05:53:13;;;;;;;14.75;9.68;;;;;;;9.06;78.74;98989.78;4959144;28;20472;-83
2024/03/21 05:55:38;;;;;;;10.77;7.90;;;;;;;8.94;79.06;98989.00;4974871;28;20041;-83
2024/03/21 05:58:04;;;;;;;9.23;7.78;;;;;;;8.93;79.50;98990.84;4990001;28;20034;-83
2024/03/21 06:00:29;;;;;;;11.60;7.82;;;;;;;9.02;78.60;98962.03;5006981;28;20021;-83
2024/03/21 06:02:55;;;;;;;15.18;10.90;;;;;;;8.73;80.45;98982.44;4990841;28;20036;-82
2024/03/21 06:05:20;;;;;;;17.00;12.50;;;;;;;8.05;84.37;98979.50;4993887;28;20066;-82
2024/03/21 06:07:45;;;;;;;13.52;8.68;;;;;;;8.15;85.48;98989.53;4977492;28;20038;-83
2024/03/21 06:10:11;;;;;;;18.90;12.52;;;;;;;7.74;86.98;99008.16;5010772;28;20040;-82
2024/03/21 06:12:36;;;;;;;24.65;13.80;;;;;;;7.73;87.35;98999.41;4993280;28;20076;-84
2024/03/21 06:15:01;;;;;;;16.85;11.18;;;;;;;7.77;86.90;98986.47;4960579;28;20037;-82
2024/03/21 06:17:27;;;;;;;21.05;14.43;;;;;;;7.77;89.02;99007.72;4995631;28;20168;-83
2024/03/21 06:19:53;;;;;;;25.05;16.08;;;;;;;7.75;87.86;99005.28;5003111;28;20034;-82
2024/03/21 06:22:18;;;;;;;32.58;18.17;;;;;;;7.61;88.81;99009.16;4991334;28;20045;-83
2024/03/21 06:24:44;;;;;;;31.90;19.02;;;;;;;7.56;88.93;98987.78;4994431;28;20038;-83
2024/03/21 06:27:09;;;;;;;33.35;17.45;;;;;;;7.49;88.96;98974.59;4976405;28;20117;-83
2024/03/21 06:29:35;;;;;;;27.67;16.35;;;;;;;7.64;89.04;99000.75;4997236;28;20033;-83
2024/03/21 06:32:00;;;;;;;24.48;15.38;;;;;;;7.85;88.35;98999.41;4982330;28;20452;-83
2024/03/21 06:34:26;;;;;;;17.98;12.65;;;;;;;8.15;85.18;98977.06;4978394;28;20026;-84
2024/03/21 06:36:51;;;;;;;25.92;14.77;;;;;;;8.00;86.30;98986.50;5013095;28;20068;-84
2024/03/21 06:39:17;;;;;;;23.80;15.80;;;;;;;7.72;88.96;99016.38;4973746;28;20091;-84
2024/03/21 06:41:45;;;;;;;26.55;15.68;;;;;;;7.97;88.20;99010.91;4993728;28;20040;-83
2024/03/21 06:44:10;;;;;;;26.23;17.25;;;;;;;8.00;88.00;99008.59;4991416;28;20400;-84
2024/03/21 06:46:38;;;;;;;26.33;16.20;;;;;;;7.94;89.21;99011.34;4974774;28;20033;-84
2024/03/21 06:49:07;;;;;;;14.15;10.27;;;;;;;8.22;86.51;99009.69;4992647;28;20033;-82
2024/03/21 06:51:32;;;;;;;26.58;15.75;;;;;;;8.09;86.67;99009.06;5011906;28;20013;-83
2024/03/21 06:53:57;;;;;;;17.20;12.77;;;;;;;8.06;87.38;99007.66;4988085;28;20037;-83
2024/03/21 06:56:23;;;;;;;17.38;11.20;;;;;;;8.38;85.76;99020.72;4973956;28;20133;-83
2024/03/21 06:58:49;;;;;;;28.13;17.10;;;;;;;8.14;87.97;99030.47;4970309;28;20101;-84
2024/03/21 07:01:16;;;;;;;25.35;14.75;;;;;;;8.18;88.15;99031.63;5009839;28;20030;-84
2024/03/21 07:03:42;;;;;;;21.27;13.88;;;;;;;8.21;88.64;99031.97;4994895;28;20026;-82
2024/03/21 07:06:07;;;;;;;20.33;13.68;;;;;;;8.00;90.39;99027.19;4977914;28;20091;-83
2024/03/21 07:08:33;;;;;;;23.42;14.20;;;;;;;8.41;86.90;99023.72;4996636;28;20030;-83
2024/03/21 07:10:58;;;;;;;17.58;11.82;;;;;;;8.87;83.21;99028.22;4997947;28;20082;-83
2024/03/21 07:13:23;;;;;;;14.07;9.52;;;;;;;9.10;81.92;99035.38;4993339;28;20038;-83
2024/03/21 07:15:49;;;;;;;23.40;12.18;;;;;;;9.12;81.75;99042.09;4973375;28;20042;-83
2024/03/21 07:18:14;;;;;;;16.55;10.02;;;;;;;9.12;81.77;99039.44;4980135;28;20029;-84
2024/03/21 07:20:40;;;;;;;23.92;14.10;;;;;;;8.67;84.87;99017.16;5005894;28;20101;-84
2024/03/21 07:23:06;;;;;;;24.10;14.15;;;;;;;8.61;85.35;99037.50;4993113;28;20554;-82
2024/03/21 07:25:31;;;;;;;28.02;14.77;;;;;;;8.34;86.88;99022.22;4970378;28;20026;-83
2024/03/21 07:27:57;;;;;;;24.75;14.48;;;;;;;8.20;89.20;99034.88;4992554;28;20026;-83
2024/03/21 07:30:22;;;;;;;26.67;16.08;;;;;;;8.51;86.88;99031.94;4978580;28;20092;-83
2024/03/21 07:32:50;;;;;;;22.40;13.48;;;;;;;9.00;83.22;99047.44;4998201;28;20037;-84
2024/03/21 07:35:16;;;;;;;17.05;9.82;;;;;;;9.16;80.63;99051.22;4996093;28;20033;-83
2024/03/21 07:37:42;;;;;;;17.58;11.10;;;;;;;9.27;81.03;99062.91;4972629;28;20034;-83
2024/03/21 07:40:07;;;;;;;33.97;22.52;;;;;;;9.24;83.12;99069.50;5005948;28;20041;-83
2024/03/21 07:42:33;;;;;;;44.55;24.52;;;;;;;9.25;84.03;99059.66;5014231;28;20034;-84
2024/03/21 07:45:01;;;;;;;17.15;11.90;;;;;;;9.38;83.02;99060.22;4994598;28;20033;-83
2024/03/21 07:47:27;;;;;;;47.08;24.17;;;;;;;9.48;83.07;99054.31;5004948;28;20427;-84
2024/03/21 07:49:54;;;;;;;20.42;13.48;;;;;;;9.44;82.26;99042.47;4989091;28;20164;-83
2024/03/21 07:52:20;;;;;;;21.35;14.85;;;;;;;9.39;81.70;99039.72;4992690;28;20057;-84
2024/03/21 07:54:45;;;;;;;25.45;16.63;;;;;;;9.74;80.85;99081.19;4994566;28;20077;-82
2024/03/21 07:57:11;;;;;;;16.48;12.50;;;;;;;9.73;80.00;99060.94;4976281;28;20711;-84
2024/03/21 07:59:36;;;;;;;18.17;13.65;;;;;;;10.00;79.54;99082.50;4976837;28;20171;-84
2024/03/21 08:02:02;;;;;;;18.70;13.52;;;;;;;9.95;79.90;99078.91;4980060;28;20034;-83
2024/03/21 08:04:28;;;;;;;28.92;17.42;;;;;;;9.87;79.90;99069.47;4980055;28;20454;-83
2024/03/21 08:06:55;;;;;;;31.58;21.45;;;;;;;9.86;80.91;99089.16;4963705;28;20049;-82
2024/03/21 08:09:23;;;;;;;26.90;18.05;;;;;;;9.89;80.36;99083.38;4991767;28;20048;-84
2024/03/21 08:11:51;;;;;;;26.20;17.77;;;;;;;10.03;80.55;99106.00;4968727;28;20031;-84
2024/03/21 08:14:18;;;;;;;37.95;24.98;;;;;;;9.89;81.75;99106.53;5003895;28;20025;-82
2024/03/21 08:16:44;;;;;;;30.65;18.45;;;;;;;10.02;80.40;99124.91;5006219;28;20049;-84
2024/03/21 08:19:09;;;;;;;29.33;18.23;;;;;;;9.94;80.68;99135.97;5006511;28;20065;-83
2024/03/21 08:21:34;;;;;;;30.98;17.85;;;;;;;9.85;81.77;99140.84;5014361;28;20061;-84
2024/03/21 08:24:00;;;;;;;34.95;23.73;;;;;;;9.82;82.39;99128.00;4995084;28;20144;-84
2024/03/21 08:26:26;;;;;;;47.15;31.33;;;;;;;10.00;83.00;99133.16;4995846;28;20095;-84
2024/03/21 08:28:51;;;;;;;44.47;27.23;;;;;;;9.86;82.33;99128.34;4980808;28;20509;-84
2024/03/21 08:31:16;;;;;;;49.45;33.20;;;;;;;9.74;84.80;99096.41;5012188;28;20493;-84
2024/03/21 08:33:42;;;;;;;45.17;28.45;;;;;;;10.03;82.83;99118.53;4980220;28;20060;-83
2024/03/21 08:36:07;;;;;;;40.80;27.50;;;;;;;10.20;82.68;99117.56;4963382;28;20026;-85
2024/03/21 08:38:33;;;;;;;46.20;27.05;;;;;;;10.42;80.69;99118.50;4975020;28;20053;-84
2024/03/21 08:40:59;;;;;;;60.25;36.80;;;;;;;10.20;83.13;99093.56;4995748;28;20057;-84
2024/03/21 08:43:24;;;;;;;42.63;27.92;;;;;;;10.35;80.03;99128.50;4996494;28;20061;-83
2024/03/21 08:45:52;;;;;;;51.78;31.40;;;;;;;10.35;81.34;99130.38;4994623;28;20053;-84
2024/03/21 08:48:18;;;;;;;43.80;28.75;;;;;;;10.16;80.37;99103.09;4992169;28;20025;-84
2024/03/21 08:50:47;;;;;;;45.10;30.13;;;;;;;10.52;81.39;99126.69;5010235;28;20084;-82
2024/03/21 08:53:17;;;;;;;55.35;32.53;;;;;;;10.47;82.95;99115.91;4983154;28;20053;-84
2024/03/21 08:55:43;;;;;;;51.00;32.75;;;;;;;10.54;84.33;99148.59;4992910;28;20025;-84
2024/03/21 08:58:08;;;;;;;50.13;30.23;;;;;;;10.60;82.16;99148.66;4985519;28;20077;-84
2024/03/21 09:00:34;;;;;;;49.05;30.30;;;;;;;10.74;82.13;99156.16;4992058;28;20018;-84
2024/03/21 09:03:00;;;;;;;41.20;27.75;;;;;;;10.48;82.27;99130.88;4987853;28;20022;-84
2024/03/21 09:05:26;;;;;;;42.55;27.23;;;;;;;10.70;82.65;99151.53;4992645;28;20049;-85
2024/03/21 09:07:51;;;;;;;39.28;25.67;;;;;;;10.61;82.77;99136.97;4980015;28;20038;-83
2024/03/21 09:10:17;;;;;;;37.95;25.75;;;;;;;10.67;82.38;99134.13;4975386;28;20116;-83
2024/03/21 09:12:42;;;;;;;40.40;24.90;;;;;;;10.79;81.46;99140.19;5009835;28;20097;-83
2024/03/21 09:15:10;;;;;;;36.30;22.67;;;;;;;10.80;82.64;99141.00;5007517;28;20042;-84
2024/03/21 09:17:36;;;;;;;40.85;22.73;;;;;;;10.81;81.48;99151.44;5007924;28;20022;-84
2024/03/21 09:20:01;;;;;;;38.20;22.80;;;;;;;10.88;82.65;99156.63;5008595;28;20033;-83
2024/03/21 09:22:26;;;;;;;31.35;22.35;;;;;;;10.88;81.78;99144.09;4989399;28;20033;-84
2024/03/21 09:24:52;;;;;;;29.17;20.13;;;;;;;10.82;82.75;99121.03;4992219;28;20068;-84
2024/03/21 09:27:17;;;;;;;33.08;21.38;;;;;;;10.98;81.02;99135.44;4994663;28;20115;-84
2024/03/21 09:29:42;;;;;;;31.45;19.77;;;;;;;10.98;81.74;99120.22;4994005;28;20042;-84
2024/03/21 09:32:08;;;;;;;30.10;21.13;;;;;;;11.04;81.51;99142.47;4974320;28;20038;-85
2024/03/21 09:34:33;;;;;;;28.70;18.90;;;;;;;11.00;80.82;99146.69;4995048;28;20037;-84
2024/03/21 09:36:58;;;;;;;27.67;19.02;;;;;;;11.03;80.80;99151.53;4996465;28;20046;-83
2024/03/21 09:39:24;;;;;;;26.95;17.50;;;;;;;10.95;81.00;99143.91;5009230;28;20031;-84
2024/03/21 09:41:52;;;;;;;29.13;18.00;;;;;;;10.91;80.98;99148.13;4974088;28;20040;-84
2024/03/21 09:44:18;;;;;;;28.92;18.10;;;;;;;10.89;81.00;99136.88;4978045;28;20045;-84
2024/03/21 09:46:45;;;;;;;25.55;17.27;;;;;;;11.06;80.77;99170.56;5010803;28;20844;-84
2024/03/21 09:49:13;;;;;;;28.75;17.92;;;;;;;10.95;80.87;99151.94;4988299;28;20017;-85
2024/03/21 09:51:40;;;;;;;26.20;17.60;;;;;;;11.01;79.84;99156.28;5011479;28;20088;-83
2024/03/21 09:54:09;;;;;;;25.20;15.55;;;;;;;11.19;79.85;99169.41;4990448;28;20045;-84
2024/03/21 09:56:35;;;;;;;26.02;16.88;;;;;;;11.23;80.03;99167.84;4984401;28;20026;-84
2024/03/21 09:59:00;;;;;;;32.60;17.55;;;;;;;11.19;79.87;99159.53;5006504;28;20399;-85
2024/03/21 10:01:26;;;;;;;21.00;14.65;;;;;;;11.32;79.71;99180.56;4979011;28;20021;-85
2024/03/21 10:03:53;;;;;;;25.15;16.17;;;;;;;11.47;78.90;99188.00;4994486;28;20030;-84
2024/03/21 10:06:18;;;;;;;22.73;16.27;;;;;;;11.42;79.09;99187.94;4990238;28;20026;-84
2024/03/21 10:08:44;;;;;;;26.75;17.10;;;;;;;11.41;79.18;99186.31;4996235;28;20060;-84
2024/03/21 10:11:10;;;;;;;21.98;15.38;;;;;;;11.51;78.62;99209.72;5006382;28;20493;-84
2024/03/21 10:13:37;;;;;;;27.23;17.35;;;;;;;11.48;78.63;99211.00;4978605;28;20153;-83
2024/03/21 10:16:03;;;;;;;24.88;17.42;;;;;;;11.47;78.98;99225.41;4977312;28;20564;-85
2024/03/21 10:18:28;;;;;;;24.55;16.10;;;;;;;11.48;78.16;99213.69;5004511;28;20033;-84
2024/03/21 10:20:54;;;;;;;25.52;17.85;;;;;;;11.42;78.90;99205.84;4960524;28;20045;-84
2024/03/21 10:23:19;;;;;;;29.00;16.45;;;;;;;11.42;78.27;99177.25;4994336;28;20101;-84
2024/03/21 10:25:48;;;;;;;23.45;15.32;;;;;;;11.52;77.50;99206.78;4976358;28;20378;-84
2024/03/21 10:28:17;;;;;;;22.10;15.27;;;;;;;11.68;77.54;99197.16;4973209;28;20029;-84
2024/03/21 10:30:43;;;;;;;21.33;14.65;;;;;;;12.01;76.99;99235.31;4988306;28;20026;-84
2024/03/21 10:33:17;;;;;;;19.27;14.18;;;;;;;11.94;76.61;99224.00;4994655;28;20034;-84
2024/03/21 10:35:43;;;;;;;21.23;13.45;;;;;;;11.96;75.62;99223.75;5010668;28;20072;-84
2024/03/21 10:38:13;;;;;;;19.75;13.05;;;;;;;11.86;75.86;99224.41;4996040;28;20037;-84
2024/03/21 10:40:45;;;;;;;19.50;13.93;;;;;;;11.91;75.22;99237.84;4993478;28;20038;-83
2024/03/21 10:43:14;;;;;;;18.38;12.18;;;;;;;11.82;75.00;99239.34;5003587;28;20034;-83
2024/03/21 10:45:41;;;;;;;17.75;11.48;;;;;;;11.79;75.36;99255.88;5012178;28;20508;-84
2024/03/21 10:48:25;;;;;;;17.80;12.52;;;;;;;11.82;74.11;99250.03;5008249;28;20033;-83
2024/03/21 10:50:50;;;;;;;16.90;10.60;;;;;;;12.03;73.25;99267.97;4986984;28;20497;-83
2024/03/21 10:53:20;;;;;;;15.02;9.38;;;;;;;11.81;73.81;99255.63;5011840;28;20029;-84
2024/03/21 10:55:49;;;;;;;13.05;8.95;;;;;;;11.84;74.34;99266.63;4993337;28;20525;-83
2024/03/21 10:58:15;;;;;;;10.45;7.47;;;;;;;11.90;72.67;99273.66;4979153;28;20124;-84
2024/03/21 11:00:55;;;;;;;16.67;7.72;;;;;;;11.73;72.46;99270.22;4992798;28;20087;-84
2024/03/21 11:03:21;;;;;;;14.20;7.60;;;;;;;11.83;72.84;99294.47;4996958;28;20028;-84
2024/03/21 11:06:10;;;;;;;7.05;5.35;;;;;;;11.93;73.58;99299.94;4988115;28;20023;-85
2024/03/21 11:08:35;;;;;;;10.95;7.63;;;;;;;11.94;72.55;99276.69;4986369;28;20033;-84
2024/03/21 11:11:01;;;;;;;10.18;7.00;;;;;;;11.93;72.37;99283.88;4961457;28;20030;-84
2024/03/21 11:13:27;;;;;;;8.93;6.72;;;;;;;12.04;70.88;99291.00;4997593;28;20041;-84
2024/03/21 11:15:52;;;;;;;9.52;7.53;;;;;;;12.11;70.56;99295.34;5014636;28;20441;-83
2024/03/21 11:18:19;;;;;;;9.15;6.88;;;;;;;12.28;71.56;99318.34;4992394;28;20721;-84
2024/03/21 11:20:44;;;;;;;9.13;6.03;;;;;;;12.31;71.02;99315.19;4993185;28;20050;-84
2024/03/21 11:23:12;;;;;;;11.88;7.00;;;;;;;12.38;72.41;99321.16;4987388;28;20032;-84
2024/03/21 11:25:37;;;;;;;17.35;7.03;;;;;;;12.51;72.00;99317.31;4992538;28;20029;-84
2024/03/21 11:28:03;;;;;;;7.65;6.85;;;;;;;12.59;71.70;99316.88;4992589;28;20034;-84